Tokyo, Japan
Current Conditions -  °F | °C
As of 12:30 PM on Monday 22 Dec 2014 (Local Time) from RJTT Reporting Station
Few Clouds Few Clouds  
Wind Chill: 52°   Ceiling: Unl
Heat Index: 52°   Visibility: 6mi
Dew Point: 16°   Wind: 15mph
Humidity: 24%   Direction: 220°SW
Pressure: 29.77"   Gusts: 28mph
Location:  35.67°N, 139.77°E
Report Text: RJTT 220330Z 22013G24KT 180V250 9999 FEW030 11/M09 Q1008 NOSIG
Loading
Personal Weather Stations






























Interactive Weather Map New forecast layout! Learn more

10-Day Weather Forecast

Advertisements
Track Severe Weather on mobile